createdAt,value
2023-03-08T00:00:40.517Z,5.27
2023-03-08T00:04:40.671Z,2.9
2023-03-08T00:08:40.532Z,8.2
2023-03-08T00:12:40.482Z,5.43
2023-03-08T00:16:40.499Z,6.73
2023-03-08T00:20:40.351Z,4.57
2023-03-08T00:24:40.800Z,7.3
2023-03-08T00:28:40.642Z,5.03
2023-03-08T00:32:40.610Z,4.53
2023-03-08T00:36:40.457Z,4.63
2023-03-08T00:40:40.635Z,6.33
2023-03-08T00:44:40.497Z,4.7
2023-03-08T00:48:40.590Z,2.23
2023-03-08T00:52:40.746Z,7.87
2023-03-08T00:56:40.613Z,6.53
2023-03-08T01:00:40.459Z,6.5
2023-03-08T01:04:40.621Z,6.1
2023-03-08T01:08:40.706Z,8.9
2023-03-08T01:12:40.750Z,11.67
2023-03-08T01:16:40.424Z,6.17
2023-03-08T01:20:40.593Z,3.53
2023-03-08T01:24:40.584Z,4.6
2023-03-08T01:28:40.680Z,6.43
2023-03-08T01:32:40.637Z,3.2
2023-03-08T01:36:40.570Z,5.77
2023-03-08T01:40:40.561Z,4.23
2023-03-08T01:44:40.647Z,5
2023-03-08T01:48:40.560Z,5.83
2023-03-08T01:52:40.756Z,8.47
2023-03-08T01:56:40.411Z,9.9
2023-03-08T02:00:40.581Z,10.93
2023-03-08T02:04:40.670Z,6.5
2023-03-08T02:08:40.609Z,6.6
2023-03-08T02:12:40.728Z,5.8
2023-03-08T02:16:40.630Z,8.23
2023-03-08T02:20:40.365Z,7.43
2023-03-08T02:24:40.498Z,5.57
2023-03-08T02:28:40.670Z,6.5
2023-03-08T02:32:40.878Z,5.93
2023-03-08T02:36:40.758Z,8
2023-03-08T02:40:40.521Z,9.53
2023-03-08T02:44:40.212Z,8.8
2023-03-08T02:48:40.543Z,8.4
2023-03-08T02:52:40.501Z,10.33
2023-03-08T02:56:41.245Z,9.97
2023-03-08T03:00:40.540Z,11.7
2023-03-08T03:04:40.589Z,11.27
2023-03-08T03:08:40.495Z,11.4
2023-03-08T03:12:40.586Z,8.07
2023-03-08T03:16:40.481Z,10.2
2023-03-08T03:20:40.613Z,13.3
2023-03-08T03:24:40.325Z,12.53
2023-03-08T03:28:40.471Z,11.2
2023-03-08T03:32:40.663Z,15.2
2023-03-08T03:36:39.694Z,17.83
2023-03-08T03:40:39.317Z,11.9
2023-03-08T03:44:40.927Z,11.1
2023-03-08T03:48:40.544Z,15.6
2023-03-08T03:52:40.568Z,12.8
2023-03-08T03:56:40.509Z,10.83
2023-03-08T04:00:40.547Z,9.13
2023-03-08T04:04:40.566Z,13.8
2023-03-08T04:08:40.502Z,17.73
2023-03-08T04:12:40.558Z,10.7
2023-03-08T04:16:40.543Z,11.33
2023-03-08T04:20:40.606Z,12.4
2023-03-08T04:24:41.255Z,15.93
2023-03-08T04:28:40.731Z,16.57
2023-03-08T04:32:40.552Z,10.77
2023-03-08T04:36:40.546Z,10.87
2023-03-08T04:40:40.616Z,10.83
2023-03-08T04:44:41.179Z,14.27
2023-03-08T04:48:40.405Z,22.3
2023-03-08T04:52:41.223Z,13.27
2023-03-08T04:56:40.500Z,12.8
2023-03-08T05:00:40.677Z,12
2023-03-08T05:04:40.359Z,9.67
2023-03-08T05:08:40.514Z,19.53
2023-03-08T05:12:40.543Z,15.6
2023-03-08T05:16:40.655Z,13.33
2023-03-08T05:20:40.512Z,12.17
2023-03-08T05:24:40.568Z,12.77
2023-03-08T05:28:40.528Z,16.67
2023-03-08T05:32:40.956Z,16.63
2023-03-08T05:36:41.180Z,16.2
2023-03-08T05:40:40.732Z,20
2023-03-08T05:44:40.511Z,15.73
2023-03-08T05:48:40.337Z,18.07
2023-03-08T05:52:41.159Z,17.73
2023-03-08T05:56:40.402Z,15.43
2023-03-08T06:00:40.638Z,19.5
2023-03-08T06:04:40.573Z,10.37
2023-03-08T06:08:40.292Z,20.27
2023-03-08T06:12:40.495Z,17.6
2023-03-08T06:16:40.505Z,19.6
2023-03-08T06:20:40.590Z,16
2023-03-08T06:24:40.486Z,16.97
2023-03-08T06:28:39.945Z,17.77
2023-03-08T06:32:41.466Z,17.73
2023-03-08T06:36:40.500Z,15.1
2023-03-08T06:40:40.441Z,20.77
2023-03-08T06:44:40.908Z,16.7
2023-03-08T06:48:39.889Z,23.17
2023-03-08T06:52:39.391Z,17.07
2023-03-08T06:56:40.489Z,15.47
2023-03-08T07:00:40.638Z,17.27
2023-03-08T07:04:40.704Z,19.97
2023-03-08T07:08:40.276Z,17.1
2023-03-08T07:12:40.965Z,17.3
2023-03-08T07:16:40.768Z,18.37
2023-03-08T07:20:40.764Z,16.77
2023-03-08T07:24:40.564Z,16.7
2023-03-08T07:28:39.715Z,16.33
2023-03-08T07:32:40.678Z,18.03
2023-03-08T07:36:40.386Z,21.63
2023-03-08T07:40:40.566Z,17.93
2023-03-08T07:44:40.440Z,17.73
2023-03-08T07:48:40.618Z,18.27
2023-03-08T07:52:41.008Z,16.73
2023-03-08T07:56:40.446Z,21.07
2023-03-08T08:00:40.733Z,16.43
2023-03-08T08:04:40.511Z,15.23
2023-03-08T08:08:39.981Z,14.77
2023-03-08T08:12:40.539Z,14.03
2023-03-08T08:16:40.682Z,15.5
2023-03-08T08:20:40.562Z,17.47
2023-03-08T08:24:40.994Z,13.63
2023-03-08T08:28:40.369Z,16.37
2023-03-08T08:32:40.591Z,16.63
2023-03-08T08:36:40.538Z,15.17
2023-03-08T08:40:40.523Z,14.43
2023-03-08T08:44:40.527Z,14.53
2023-03-08T08:48:40.473Z,16.07
2023-03-08T08:52:40.952Z,15.43
2023-03-08T08:56:40.467Z,14.23
2023-03-08T09:00:40.839Z,13.27
2023-03-08T09:04:41.188Z,12.5
2023-03-08T09:08:40.539Z,13.6
2023-03-08T09:12:40.960Z,12
2023-03-08T09:16:40.689Z,9.68
2023-03-08T09:20:40.120Z,14.77
2023-03-08T09:24:41.245Z,8.32
2023-03-08T09:28:40.504Z,10.17
2023-03-08T09:32:40.871Z,10.43
2023-03-08T09:36:40.573Z,11.8
2023-03-08T09:40:40.621Z,14.5
2023-03-08T09:44:40.562Z,14
2023-03-08T09:48:39.867Z,11.4
2023-03-08T09:52:40.647Z,10.27
2023-03-08T09:56:40.578Z,9.47
2023-03-08T10:00:40.883Z,10.8
2023-03-08T10:04:40.854Z,9
2023-03-08T10:08:39.829Z,11.93
2023-03-08T10:12:40.950Z,10.55
2023-03-08T10:16:40.673Z,10.73
2023-03-08T10:20:40.624Z,9.95
2023-03-08T10:24:40.518Z,10.65
2023-03-08T10:28:40.260Z,11.15
2023-03-08T10:32:40.530Z,9.82
2023-03-08T10:36:41.242Z,16.17
2023-03-08T10:40:40.874Z,9.9
2023-03-08T10:44:40.094Z,12.32
2023-03-08T10:48:39.504Z,9.68
2023-03-08T10:52:40.545Z,9.95
2023-03-08T10:56:40.880Z,10.8
2023-03-08T11:00:40.731Z,8.55
2023-03-08T11:04:40.542Z,7.3
2023-03-08T11:08:40.589Z,8.3
2023-03-08T11:12:40.775Z,7.25
2023-03-08T11:16:40.546Z,6.05
2023-03-08T11:20:40.490Z,6.93
2023-03-08T11:24:40.471Z,7.35
2023-03-08T11:28:39.828Z,9.57
2023-03-08T11:32:40.749Z,7
2023-03-08T11:36:40.384Z,8.2
2023-03-08T11:40:40.998Z,7.18
2023-03-08T11:44:40.538Z,6.07
2023-03-08T11:48:40.702Z,9.1
2023-03-08T11:52:40.721Z,9.67
2023-03-08T11:56:40.690Z,8.9
2023-03-08T12:00:40.682Z,6.7
2023-03-08T12:04:40.617Z,7.9
2023-03-08T12:08:40.511Z,6.8
2023-03-08T12:12:40.541Z,6.1
2023-03-08T12:16:41.096Z,7.1
2023-03-08T12:20:40.554Z,10.07
2023-03-08T12:24:40.685Z,4.57
2023-03-08T12:28:40.778Z,10.23
2023-03-08T12:32:41.105Z,6.43
2023-03-08T12:36:40.495Z,6.9
2023-03-08T12:40:40.833Z,9.93
2023-03-08T12:44:40.952Z,4.9
2023-03-08T12:48:40.486Z,5.9
2023-03-08T12:52:41.191Z,8.73
2023-03-08T12:56:40.517Z,6.87
2023-03-08T13:00:40.653Z,5.53
2023-03-08T13:04:42.267Z,9.03
2023-03-08T13:08:40.326Z,7.9
2023-03-08T13:12:40.887Z,6.67
2023-03-08T13:16:40.553Z,9.27
2023-03-08T13:20:41.995Z,9.77
2023-03-08T13:24:40.566Z,8.47
2023-03-08T13:28:47.325Z,15.77
2023-03-08T13:32:40.159Z,8.7
2023-03-08T13:36:40.524Z,14.97
2023-03-08T13:40:40.980Z,9.47
2023-03-08T13:44:40.497Z,9.77
2023-03-08T13:48:40.631Z,14.93
2023-03-08T13:52:40.529Z,9.63
2023-03-08T13:56:40.651Z,13.57
2023-03-08T14:00:40.738Z,14.2
2023-03-08T14:04:40.680Z,10.43
2023-03-08T14:08:40.936Z,10.87
2023-03-08T14:12:41.015Z,10.6
2023-03-08T14:16:40.709Z,10.87
2023-03-08T14:20:40.700Z,18.03
2023-03-08T14:24:40.489Z,13.8
2023-03-08T14:28:41.550Z,15.23
2023-03-08T14:32:40.804Z,13.9
2023-03-08T14:36:40.583Z,10.43
2023-03-08T14:40:40.427Z,11.47
2023-03-08T14:44:40.310Z,10.87
2023-03-08T14:48:40.604Z,9.3
2023-03-08T14:52:40.484Z,9.73
2023-03-08T14:56:40.494Z,11.53
2023-03-08T15:00:40.027Z,11.8
2023-03-08T15:04:40.377Z,13.17
2023-03-08T15:08:40.170Z,37.2
2023-03-08T15:12:40.645Z,16.7
2023-03-08T15:16:40.798Z,15.5
2023-03-08T15:20:40.141Z,12.8
2023-03-08T15:24:40.910Z,14.47
2023-03-08T15:28:40.305Z,14.33
2023-03-08T15:32:40.775Z,11.2
2023-03-08T15:36:40.639Z,11
2023-03-08T15:40:40.845Z,12.9
2023-03-08T15:44:40.725Z,16.07
2023-03-08T15:48:40.244Z,11.73
2023-03-08T15:52:40.721Z,14.17
2023-03-08T15:56:40.266Z,14.13
2023-03-08T16:00:40.602Z,14.2
2023-03-08T16:04:40.517Z,18.67
2023-03-08T16:08:40.225Z,13.07
2023-03-08T16:12:40.793Z,15.63
2023-03-08T16:16:45.613Z,12.9
2023-03-08T16:20:40.600Z,16.2
2023-03-08T16:24:40.544Z,24.37
2023-03-08T16:28:40.267Z,18.23
2023-03-08T16:32:40.625Z,18.3
2023-03-08T16:36:40.387Z,16.57
2023-03-08T16:40:40.982Z,18.13
2023-03-08T16:44:40.969Z,19.27
2023-03-08T16:48:40.654Z,17.73
2023-03-08T16:52:40.566Z,17.4
2023-03-08T16:56:40.570Z,19.37
2023-03-08T17:00:41.043Z,12.97
2023-03-08T17:04:40.527Z,14.9
2023-03-08T17:08:39.421Z,19.27
2023-03-08T17:12:40.300Z,19.43
2023-03-08T17:16:39.377Z,28.4
2023-03-08T17:20:40.860Z,18.43
2023-03-08T17:24:40.526Z,24.87
2023-03-08T17:28:40.650Z,18.93
2023-03-08T17:32:40.476Z,26.4
2023-03-08T17:36:40.442Z,25.6
2023-03-08T17:40:40.505Z,27.27
2023-03-08T17:44:40.577Z,26.5
2023-03-08T17:48:40.805Z,27.93
2023-03-08T17:52:40.497Z,26.17
2023-03-08T17:56:40.506Z,25.77
2023-03-08T18:00:40.681Z,31.37
2023-03-08T18:04:41.183Z,25.9
2023-03-08T18:08:40.507Z,25.07
2023-03-08T18:12:40.673Z,29.4
2023-03-08T18:16:40.597Z,26.33
2023-03-08T18:20:40.853Z,24.9
2023-03-08T18:24:40.506Z,28.27
2023-03-08T18:28:40.556Z,26.57
2023-03-08T18:32:40.395Z,24.13
2023-03-08T18:36:40.431Z,28.53
2023-03-08T18:40:40.522Z,28.07
2023-03-08T18:44:40.549Z,28.23
2023-03-08T18:48:40.549Z,30.23
2023-03-08T18:52:40.255Z,27.37
2023-03-08T18:56:40.333Z,25.53
2023-03-08T19:00:40.744Z,29.4
2023-03-08T19:04:40.536Z,29.23
2023-03-08T19:08:40.831Z,27.47
2023-03-08T19:12:40.548Z,31.37
2023-03-08T19:16:40.736Z,25.43
2023-03-08T19:20:40.719Z,23.87
2023-03-08T19:24:40.807Z,20.43
2023-03-08T19:28:39.890Z,24.6
2023-03-08T19:32:42.666Z,20.67
2023-03-08T19:36:40.302Z,20.8
2023-03-08T19:40:40.727Z,20.27
2023-03-08T19:44:40.614Z,21.23
2023-03-08T19:48:40.507Z,21.73
2023-03-08T19:52:40.613Z,23.23
2023-03-08T19:56:40.636Z,22.87
2023-03-08T20:00:40.573Z,19.17
2023-03-08T20:04:40.525Z,23.4
2023-03-08T20:08:40.463Z,25.2
2023-03-08T20:12:40.787Z,22.2
2023-03-08T20:16:40.516Z,21
2023-03-08T20:20:40.595Z,23.9
2023-03-08T20:24:40.546Z,21.3
2023-03-08T20:28:40.609Z,26.57
2023-03-08T20:32:40.964Z,29.63
2023-03-08T20:36:40.443Z,30.37
2023-03-08T20:40:40.608Z,21.13
2023-03-08T20:44:40.557Z,22.37
2023-03-08T20:48:40.585Z,25.77
2023-03-08T20:52:40.506Z,25.03
2023-03-08T20:56:40.558Z,23
2023-03-08T21:00:41.529Z,24.6
2023-03-08T21:04:40.829Z,19.17
2023-03-08T21:08:39.550Z,22.5
2023-03-08T21:12:41.190Z,25.17
2023-03-08T21:16:40.659Z,29
2023-03-08T21:20:40.577Z,24.47
2023-03-08T21:24:40.678Z,24.17
2023-03-08T21:28:39.593Z,24.73
2023-03-08T21:32:40.707Z,23.53
2023-03-08T21:36:40.373Z,25.57
2023-03-08T21:40:40.652Z,24.47
2023-03-08T21:44:40.545Z,22.67
2023-03-08T21:48:39.735Z,24.63
2023-03-08T21:52:40.872Z,20.3
2023-03-08T21:56:40.559Z,24.6
2023-03-08T22:00:40.932Z,24.23
2023-03-08T22:04:40.584Z,25.93
2023-03-08T22:08:40.438Z,24.6
2023-03-08T22:12:40.478Z,25.7
2023-03-08T22:16:40.422Z,26.83
2023-03-08T22:20:40.545Z,32.77
2023-03-08T22:24:40.984Z,28.1
2023-03-08T22:28:40.459Z,24.97
2023-03-08T22:32:40.585Z,27.93
2023-03-08T22:36:40.849Z,26.17
2023-03-08T22:40:40.631Z,29.47
2023-03-08T22:44:40.705Z,27.37
2023-03-08T22:48:40.281Z,26.2
2023-03-08T22:52:40.664Z,29.5
2023-03-08T22:56:40.505Z,28.03
2023-03-08T23:00:39.841Z,28.37
2023-03-08T23:04:41.197Z,26.83
2023-03-08T23:08:40.522Z,31.53
2023-03-08T23:12:40.625Z,28.83
2023-03-08T23:16:40.586Z,32.67
2023-03-08T23:20:41.281Z,30.17
2023-03-08T23:24:40.579Z,27.17
2023-03-08T23:28:40.551Z,31.43
2023-03-08T23:32:40.692Z,25.97
2023-03-08T23:36:40.750Z,28.33
2023-03-08T23:40:40.777Z,29.93
2023-03-08T23:44:40.581Z,34
2023-03-08T23:48:40.594Z,28.3
2023-03-08T23:52:40.520Z,29.1
2023-03-08T23:56:40.479Z,30.87
